[Jeden Montag | 1830z - 2130z | EDDN] Nürnberg Monday

Zu Eventkalender hinzugefügt: 20 Daten

RG München

RG München - Leitung
Auch heute wieder erstmalig hier im "Neuen Forum"

Der Albrecht-Dürer-Airport hat wie immer montags für Euch geöffnet.
Ferienende in Bayern naht, daher noch die kurzentschlossenen Urlauber zu den bekannten Destinations bringen oder die Heimkehrer nach Hause bringen. Düsseldorf ist heute ebenfalls wieder mit von der Partie!;)

Wettertechnisch könnte es interessante Anflüge geben:
EDDN 261620Z 09003KT 9999 FEW030CB 24/18 Q1018 RETS NOSIG

TAF EDDN 261247Z 2612/2712 10004KT CAVOK
TEMPO 2613/2615 12015G30KT 4000 TSRA BKN040CB
PROB30
TEMPO 2615/2619 12015G30KT TSRA BKN040CB
Bis gleich auf der Welle.

Dietmar Brinschwitz
 

Dietmar Brinschwitz

940593
RG München - Leitung
RG München - NAV
Servus,

letzter Ferienmontag in Bayern und dann geht das richtige Leben der Schüler wieder los.
Also alle holen noch mal jegliches Fluggerät aus dem Hangar und los gehts. Bucht fleissig Flüge von/nach EDDN.

Wetter könnte interessant werden:
EDDN 091420Z 26011KT 9999 SCT020 15/10 Q1014 NOSIG

TAF EDDN 091100Z 0912/1012 28008KT 9999 SCT014 BKN030
TEMPO 0912/0917 SHRA BKN014TCU
BECMG 0917/0920 VRB03KT
PROB30
TEMPO 1005/1009 2000 BR BKN004
Wir hören uns gleich auf der Frequenz;)
 
Zuletzt bearbeitet:

Dietmar Brinschwitz

940593
RG München - Leitung
RG München - NAV
Mahlzeit,

Heute ist wieder Montag und wir brauchen traffic, traffic....., denn unsere ATC Azubis wollen üben.
DüDo ist wieder mit von der Partie für Kurzstrecken und das Wetter zeigt sich noch mal von der besten Seite:
EDDN 161020Z VRB03KT CAVOK 20/10 Q1020 BECMG 29006KT

TAF EDDN 160500Z 1606/1706 VRB02KT CAVOK
BECMG 1609/1611 29006KT
BECMG 1617/1619 VRB03KT
TEMPO 1700/1705 BKN012
Bis später ;-)
 

Dietmar Brinschwitz

940593
RG München - Leitung
RG München - NAV
Heute hängen die Wolken tief und es regnet gerade,

aber nichts kann uns davon abbringen, heute den Albrecht-Dürer-Airport zu staffen. Der Regen hat den Staub von den Scheiben des Towers gewaschen, so dass wir wie immer vollen Durchblick haben:cool:

Also heute Abend wieder die gewaschenen Flieger rausholen und uns besuchen.

Wetterberuhigung ist in Sicht:
EDDN 230850Z 27009KT 240V300 9999 -RA FEW008 BKN011 14/13 Q1015 NOSIG

TAF EDDN 230500Z 2306/2406 27010KT 9999 FEW012 BKN020
TEMPO 2306/2315 RA FEW008 BKN012
PROB30
TEMPO 2306/2310 BKN008
BECMG 2315/2317 25005KT
BECMG 2319/2321 VRB03KT
Bis heut Abend.....🛩🛬
 

Dietmar Brinschwitz

940593
RG München - Leitung
RG München - NAV
Nach dem Sturm, ist vor dem Nürnberg Montag.

Flogen heute Nacht noch die Camingstühle, -tische u.a., so hoffen wir heute Abend auf Eure fliegende Unterstützung.

Nach der leichen Wetterberuhigung immer noch strammer Wind:
EDDN 301320Z 25015KT 9999 SCT035 BKN048 15/09 Q1013 NOSIG

TAF EDDN 301100Z 3012/0112 26015G25KT 9999 SCT025 BKN040
TEMPO 3012/3015 26020G30KT
BECMG 3015/3017 26010KT
BECMG 3017/3020 17004KT
PROB30
TEMPO 0106/0112 SHRA BKN040TCU
BECMG 0109/0111 24009KT
Bis später auf der Frequenz
 

Dietmar Brinschwitz

940593
RG München - Leitung
RG München - NAV
Gleich geht's los,

Nachdem auch in Franken der Regen nachgelassen hat, hoffen wir auf Eure rege Beteiligung zum letzten NüMo mit dem "alten Voicecodec"

Wetter:
EDDN 071520Z VRB02KT 9999 FEW012 BKN015 09/07 Q1019 TEMPO BKN014

TAF AMD EDDN 071305Z 0713/0812 10005KT 9999 SCT014 BKN030
TEMPO 0713/0716 BKN014
BECMG 0809/0811 20008KT
Bye, bye alter Voicecodec, bis gleich auf der Frequenz
 

Heinz Andersen

1137111
RG München - Leitung
RG München - Event
RG München - NAV
RG München - Mentor
Alexander war heute leider nicht erfolgreich, beim nächsten CPT hat er bestimmt Erfolg!
 

Michael Hoffmann

1399859
RG München - Event
RG München - Mentor
Auch heute begrüßt euch die RG München wieder am Albrecht Dürer Airport in Nürnberg.
Von 1830z - 2130z bieten wir euch den gewohnt guten Service für IFR und VFR.
Auch Düsseldorf ist wie jeden Montag wieder mit von der Partie.

Freut euch außerdem auch schon ein mal auf unser Christkindlmarkt Fly-In am 30.11.19. Mehr Infos dazu findet ihr hier.

Das Wetter am Abend:
EDDN 111100Z 1112/1212 14005KT 9999 BKN014 BECMG 1112/1115 BKN015 BECMG 1208/1210 20007KT
Bis später :)
 
Oben